Avalon, California
Current Conditions -  °F | °C
As of 10:51 PM on Friday 24 Oct 2014 (Local Time) from KAVX Reporting Station
Clear Clear  
Wind Chill: 69°   Ceiling: Unl
Heat Index: 69°   Visibility: 10mi
Dew Point: 28°   Wind: 0mph
Humidity: 22%   Direction: NA
Pressure: 30.05"   Gusts: NA
Location:  33.34°N, 118.33°W
Report Text: KAVX 250551Z AUTO 00000KT 10SM CLR 21/M02 A3005 RMK AO2 SLP146 T02061022 10256 20206 51012
Loading
Personal Weather Stations






























Interactive Weather Map
Tropical Storm Tracking
New forecast layout! Learn more

10-Day Weather Forecast

Advertisements
Track Severe Weather on mobile